Time;durP1;ratioP1;P1;durP2;ratioP2;P2;SDS_P1;SDS_P2;PMS_P1;PMS_P2;Temp;Humidity;BMP_temperature;BMP_pressure;BME280_temperature;BME280_humidity;BME280_pressure;Samples;Min_cycle;Max_cycle;Signal;HPM_P1;HPM_P2
2023/04/30 00:01:54;;;;;;;6.27;5.43;;;18.60;50.40;;;;;;5128800;27;20202;-80
2023/04/30 00:04:20;;;;;;;6.47;5.77;;;18.60;50.30;;;;;;5125949;27;20243;-81
2023/04/30 00:06:46;;;;;;;6.33;5.37;;;18.60;50.30;;;;;;5112350;27;20163;-81
2023/04/30 00:09:11;;;;;;;6.20;5.60;;;18.60;50.30;;;;;;5107790;27;20187;-81
2023/04/30 00:11:37;;;;;;;5.93;5.37;;;18.60;50.80;;;;;;5126168;27;20186;-82
2023/04/30 00:14:02;;;;;;;6.80;5.67;;;18.60;50.30;;;;;;5106542;27;20175;-82
2023/04/30 00:16:28;;;;;;;5.77;5.20;;;18.60;50.30;;;;;;5107454;27;20315;-81
2023/04/30 00:18:54;;;;;;;6.23;5.10;;;18.60;50.30;;;;;;5108664;28;20199;-81
2023/04/30 00:21:19;;;;;;;5.83;5.33;;;18.60;50.30;;;;;;5103713;28;21252;-83
2023/04/30 00:23:45;;;;;;;6.00;5.40;;;18.60;50.20;;;;;;5105395;28;20184;-81
2023/04/30 00:26:11;;;;;;;6.57;5.90;;;18.60;50.30;;;;;;5102549;28;20198;-81
2023/04/30 00:28:36;;;;;;;6.30;5.47;;;18.50;50.20;;;;;;5104825;28;20184;-82
2023/04/30 00:31:05;;;;;;;6.57;5.87;;;18.50;50.20;;;;;;5105242;28;20172;-81
2023/04/30 00:33:31;;;;;;;6.20;5.60;;;18.50;50.10;;;;;;5109078;28;20159;-82
2023/04/30 00:35:56;;;;;;;7.00;6.17;;;18.50;50.10;;;;;;5105836;28;20182;-81
2023/04/30 00:38:23;;;;;;;7.23;5.77;;;18.50;50.10;;;;;;5107267;28;20175;-82
2023/04/30 00:40:48;;;;;;;6.30;5.70;;;18.50;50.00;;;;;;5104770;28;20632;-82
2023/04/30 00:43:14;;;;;;;6.20;5.60;;;18.50;50.10;;;;;;5107017;28;20310;-83
2023/04/30 00:45:40;;;;;;;6.47;5.77;;;18.50;50.00;;;;;;5108458;28;20181;-81
2023/04/30 00:48:06;;;;;;;6.57;5.93;;;18.50;50.00;;;;;;5105291;28;20278;-81
2023/04/30 00:50:34;;;;;;;6.07;5.47;;;18.50;50.00;;;;;;5108281;28;20212;-81
2023/04/30 00:53:00;;;;;;;6.50;5.80;;;18.50;50.00;;;;;;5107402;28;20184;-81
2023/04/30 00:55:26;;;;;;;6.23;5.17;;;18.50;50.00;;;;;;5106875;28;20190;-81
2023/04/30 00:57:51;;;;;;;6.00;5.17;;;18.50;50.00;;;;;;5109706;28;20266;-83
2023/04/30 01:00:17;;;;;;;5.87;5.17;;;18.50;50.00;;;;;;5106810;28;20199;-82
2023/04/30 01:02:43;;;;;;;6.87;5.70;;;18.50;50.00;;;;;;5105194;28;20554;-80
2023/04/30 01:05:09;;;;;;;6.37;5.50;;;18.50;50.00;;;;;;5107169;28;20187;-83
2023/04/30 01:08:03;;;;;;;6.60;6.00;;;18.50;50.10;;;;;;5109141;28;20175;-81
2023/04/30 01:10:41;;;;;;;7.03;6.33;;;18.50;50.10;;;;;;5110250;28;20223;-82
2023/04/30 01:13:22;;;;;;;6.37;5.73;;;18.50;50.20;;;;;;5110354;28;20593;-83
2023/04/30 01:16:13;;;;;;;7.53;6.00;;;18.50;50.20;;;;;;5111668;28;20172;-82
2023/04/30 01:18:47;;;;;;;6.17;5.57;;;18.50;50.30;;;;;;5110048;28;20650;-80
2023/04/30 01:21:15;;;;;;;6.53;5.80;;;18.50;50.30;;;;;;5122447;27;20239;-83
2023/04/30 01:24:11;;;;;;;7.33;6.20;;;18.50;50.30;;;;;;5113889;27;20211;-82
2023/04/30 01:27:03;;;;;;;7.03;6.33;;;18.50;50.40;;;;;;5114456;27;20323;-81
2023/04/30 01:29:30;;;;;;;6.37;5.73;;;18.50;50.40;;;;;;5132417;27;20178;-82
2023/04/30 01:31:56;;;;;;;6.53;5.90;;;18.50;50.40;;;;;;5113847;27;20647;-81
2023/04/30 01:34:22;;;;;;;6.80;6.10;;;18.50;50.40;;;;;;5113742;27;20190;-81
2023/04/30 01:40:21;;;;;;;6.43;5.70;;;18.50;50.60;;;;;;5124387;27;20218;-81
2023/04/30 06:43:27;;;;;;;4.10;3.70;;;18.60;51.10;;;;;;4928098;27;22451;-79
2023/04/30 06:45:53;;;;;;;5.97;4.23;;;18.60;51.30;;;;;;5119366;27;20285;-80
2023/04/30 06:48:19;;;;;;;8.10;4.20;;;18.70;51.60;;;;;;5126552;27;20258;-80
2023/04/30 06:50:44;;;;;;;8.53;4.53;;;18.70;51.20;;;;;;5109437;27;20666;-82
2023/04/30 06:53:14;;;;;;;7.40;4.70;;;18.70;51.20;;;;;;5110761;27;20286;-79
2023/04/30 06:55:45;;;;;;;8.07;4.20;;;18.80;51.40;;;;;;5137839;27;20174;-81
2023/04/30 06:58:11;;;;;;;5.93;4.37;;;18.80;51.50;;;;;;5109543;27;20183;-81
2023/04/30 07:00:37;;;;;;;4.73;3.80;;;18.70;51.30;;;;;;5128284;27;20510;-82
2023/04/30 07:03:03;;;;;;;5.63;4.20;;;18.80;51.40;;;;;;5108136;27;20624;-80
2023/04/30 07:05:32;;;;;;;4.40;3.93;;;18.80;51.40;;;;;;5108935;27;20186;-80
2023/04/30 07:08:00;;;;;;;6.47;4.07;;;18.80;51.30;;;;;;5110819;27;20167;-83
2023/04/30 07:10:26;;;;;;;4.97;3.87;;;18.90;51.50;;;;;;5126072;27;20179;-82
2023/04/30 07:12:52;;;;;;;5.73;3.97;;;18.80;51.30;;;;;;5106987;27;20707;-78
2023/04/30 07:15:17;;;;;;;4.97;3.73;;;18.90;51.40;;;;;;5127338;27;20572;-80
2023/04/30 07:17:43;;;;;;;4.17;3.60;;;18.90;51.30;;;;;;5108445;27;20208;-80
2023/04/30 07:20:09;;;;;;;4.77;3.63;;;18.90;51.50;;;;;;5109986;27;20635;-79
2023/04/30 07:22:35;;;;;;;4.30;3.63;;;18.90;51.50;;;;;;5105275;27;20183;-80
2023/04/30 07:25:00;;;;;;;6.37;3.77;;;18.90;51.60;;;;;;5108020;27;20778;-80
2023/04/30 07:27:27;;;;;;;4.00;3.60;;;18.90;51.50;;;;;;5126594;27;20714;-80
2023/04/30 07:29:53;;;;;;;4.43;3.47;;;18.90;51.60;;;;;;5126253;27;20195;-81
2023/04/30 07:32:19;;;;;;;4.07;3.60;;;18.90;51.50;;;;;;5107575;27;20182;-78
2023/04/30 07:34:44;;;;;;;3.33;3.03;;;18.90;51.50;;;;;;5128023;27;20648;-78
2023/04/30 07:37:10;;;;;;;4.93;3.40;;;18.90;51.40;;;;;;5106089;27;24137;-79
2023/04/30 07:39:37;;;;;;;4.63;3.27;;;19.00;51.60;;;;;;5105218;27;20262;-79
2023/04/30 07:42:03;;;;;;;3.50;3.20;;;18.90;51.40;;;;;;5105707;27;20234;-87
2023/04/30 07:44:29;;;;;;;3.90;3.33;;;19.00;51.40;;;;;;5127377;27;20218;-77
2023/04/30 07:46:55;;;;;;;4.00;3.40;;;19.00;51.30;;;;;;5107444;27;20337;-78
2023/04/30 07:49:21;;;;;;;5.80;3.73;;;19.10;51.40;;;;;;5107784;27;20257;-78
2023/04/30 07:51:47;;;;;;;4.40;3.50;;;19.10;51.40;;;;;;5125776;27;20182;-77
2023/04/30 07:54:13;;;;;;;3.93;3.27;;;19.10;51.20;;;;;;5106191;27;20227;-78
2023/04/30 07:56:38;;;;;;;3.70;3.10;;;19.10;51.20;;;;;;5122732;27;20270;-79
2023/04/30 07:59:05;;;;;;;4.77;3.70;;;19.10;51.20;;;;;;5109469;27;20538;-79
2023/04/30 08:01:31;;;;;;;4.60;3.80;;;19.10;51.10;;;;;;5105185;28;20235;-79
2023/04/30 08:03:56;;;;;;;5.37;3.87;;;19.20;51.30;;;;;;5105934;27;20219;-79
2023/04/30 08:06:22;;;;;;;4.80;3.90;;;19.20;51.30;;;;;;5127146;27;20246;-80
2023/04/30 08:08:48;;;;;;;5.47;3.97;;;19.20;51.20;;;;;;5126087;27;20175;-81
2023/04/30 08:11:14;;;;;;;3.90;3.60;;;19.20;51.40;;;;;;5111833;27;20182;-79
2023/04/30 08:13:41;;;;;;;4.30;3.90;;;19.20;51.70;;;;;;5106997;28;20181;-80
2023/04/30 08:16:06;;;;;;;7.20;4.00;;;19.20;51.70;;;;;;5109684;28;20273;-81
2023/04/30 08:18:32;;;;;;;6.77;3.50;;;19.20;51.50;;;;;;5111386;27;20163;-81
2023/04/30 08:20:59;;;;;;;7.60;3.67;;;19.20;51.60;;;;;;5125325;27;20862;-80
2023/04/30 08:23:25;;;;;;;4.53;3.50;;;19.20;51.20;;;;;;5104188;28;20212;-81
2023/04/30 08:25:51;;;;;;;3.67;3.37;;;19.20;51.20;;;;;;5108669;28;20171;-83
2023/04/30 08:28:17;;;;;;;4.03;3.53;;;19.20;51.20;;;;;;5107269;28;20536;-81
2023/04/30 08:30:43;;;;;;;3.90;3.50;;;19.20;51.20;;;;;;5108756;28;20175;-82
2023/04/30 08:33:08;;;;;;;3.93;3.57;;;19.20;51.20;;;;;;5107501;28;20181;-82
2023/04/30 08:35:34;;;;;;;6.10;3.53;;;19.20;51.10;;;;;;5123920;28;20765;-81
2023/04/30 08:38:00;;;;;;;5.73;3.60;;;19.20;51.10;;;;;;5105454;28;20179;-81
2023/04/30 08:40:26;;;;;;;3.83;3.43;;;19.20;51.10;;;;;;5125862;28;20222;-80
2023/04/30 08:43:06;;;;;;;4.10;3.47;;;19.20;51.20;;;;;;5107907;28;20163;-80
2023/04/30 08:45:33;;;;;;;4.20;3.27;;;19.20;51.00;;;;;;5127030;28;20206;-82
2023/04/30 08:47:59;;;;;;;4.83;3.73;;;19.20;51.20;;;;;;5106100;28;20310;-81
2023/04/30 08:50:26;;;;;;;4.97;3.33;;;19.20;51.10;;;;;;5105728;28;20175;-81
2023/04/30 08:52:51;;;;;;;10.97;3.27;;;19.20;51.20;;;;;;5100684;28;20403;-83
2023/04/30 08:55:17;;;;;;;5.80;3.50;;;19.20;51.10;;;;;;5104082;28;20229;-81
2023/04/30 08:57:43;;;;;;;4.87;3.27;;;19.20;51.00;;;;;;5105215;28;20203;-82
2023/04/30 09:00:09;;;;;;;4.60;3.17;;;19.20;51.20;;;;;;5108631;28;20175;-81
2023/04/30 09:02:39;;;;;;;6.80;3.53;;;19.30;51.30;;;;;;5120917;27;20626;-81
2023/04/30 09:05:11;;;;;;;10.33;4.07;;;19.30;51.40;;;;;;5104264;28;20190;-80
2023/04/30 09:07:41;;;;;;;7.27;3.80;;;19.30;51.10;;;;;;5106472;28;20183;-78
2023/04/30 09:10:24;;;;;;;7.40;3.53;;;19.30;51.50;;;;;;5125224;28;20171;-84
2023/04/30 09:13:02;;;;;;;7.17;3.40;;;19.30;51.60;;;;;;5107679;28;20179;-84
2023/04/30 09:15:29;;;;;;;5.20;4.07;;;19.30;51.70;;;;;;5109150;28;20167;-84
2023/04/30 09:18:11;;;;;;;5.47;3.67;;;19.30;51.60;;;;;;5126351;28;20202;-82
2023/04/30 09:20:37;;;;;;;6.37;3.30;;;19.30;51.50;;;;;;5103970;28;20205;-82
2023/04/30 09:23:12;;;;;;;5.37;3.53;;;19.30;51.00;;;;;;5107374;28;20182;-83
2023/04/30 09:25:42;;;;;;;6.27;3.47;;;19.30;51.00;;;;;;5105958;28;20622;-83
2023/04/30 09:28:09;;;;;;;4.50;3.33;;;19.30;51.00;;;;;;5108993;27;20175;-85
2023/04/30 09:30:35;;;;;;;6.33;3.30;;;19.30;51.10;;;;;;5112138;27;20220;-79
2023/04/30 09:33:01;;;;;;;6.27;3.60;;;19.30;50.90;;;;;;5111338;27;20187;-84
2023/04/30 09:35:32;;;;;;;4.70;3.27;;;19.30;51.00;;;;;;5111552;27;20533;-83
2023/04/30 09:38:00;;;;;;;3.97;3.20;;;19.30;50.90;;;;;;5112464;27;20186;-82
2023/04/30 09:40:37;;;;;;;6.43;3.17;;;19.30;50.80;;;;;;5111546;27;20207;-82
2023/04/30 09:43:03;;;;;;;4.77;3.30;;;19.30;50.80;;;;;;5111079;27;20615;-82
2023/04/30 09:45:47;;;;;;;5.03;3.20;;;19.30;50.80;;;;;;5110743;27;20207;-82
2023/04/30 09:48:31;;;;;;;3.37;3.07;;;19.30;50.80;;;;;;5109598;27;20182;-82
2023/04/30 09:50:57;;;;;;;3.97;3.07;;;19.30;50.80;;;;;;5108821;27;20267;-82
2023/04/30 09:53:23;;;;;;;4.60;3.00;;;19.30;50.90;;;;;;5110045;27;20279;-82
2023/04/30 09:55:50;;;;;;;3.97;3.30;;;19.30;50.80;;;;;;5129191;27;20225;-82
2023/04/30 09:58:17;;;;;;;3.20;2.87;;;19.30;50.80;;;;;;5110359;27;20179;-83
2023/04/30 10:00:45;;;;;;;4.23;2.83;;;19.30;50.70;;;;;;5110785;27;20195;-82
2023/04/30 10:03:14;;;;;;;5.03;3.00;;;19.30;50.80;;;;;;5126498;27;20879;-82
2023/04/30 10:05:43;;;;;;;3.67;3.17;;;19.30;50.70;;;;;;5108780;27;20584;-82
2023/04/30 10:08:25;;;;;;;5.80;2.90;;;19.30;50.70;;;;;;5109811;27;20218;-81
2023/04/30 10:11:03;;;;;;;4.07;2.90;;;19.30;50.70;;;;;;5109518;27;20541;-82
2023/04/30 10:13:32;;;;;;;4.17;3.10;;;19.30;50.70;;;;;;5109947;27;20187;-83
2023/04/30 10:16:03;;;;;;;7.17;3.23;;;19.30;50.60;;;;;;5131475;27;20159;-81
2023/04/30 10:18:33;;;;;;;3.33;2.60;;;19.30;50.60;;;;;;5110706;27;20183;-82
2023/04/30 10:21:04;;;;;;;4.37;3.17;;;19.30;50.60;;;;;;5108660;27;20203;-82
2023/04/30 10:23:30;;;;;;;5.23;2.80;;;19.30;50.60;;;;;;5108960;27;20236;-82
2023/04/30 10:25:56;;;;;;;4.60;2.83;;;19.30;51.10;;;;;;5110326;27;20174;-83
2023/04/30 10:28:26;;;;;;;4.93;2.83;;;19.30;50.60;;;;;;5128086;27;20190;-82
2023/04/30 10:30:52;;;;;;;5.00;3.27;;;19.30;50.60;;;;;;5110715;27;20171;-82
2023/04/30 10:33:34;;;;;;;3.43;2.70;;;19.30;50.50;;;;;;5127139;27;20175;-82
2023/04/30 10:36:03;;;;;;;3.93;3.10;;;19.30;50.50;;;;;;5109230;27;20646;-82
2023/04/30 10:38:31;;;;;;;2.80;2.40;;;19.30;50.50;;;;;;5126222;27;20206;-82
2023/04/30 10:40:58;;;;;;;4.63;2.90;;;19.30;50.50;;;;;;5109409;27;20206;-82
2023/04/30 10:43:24;;;;;;;3.10;2.57;;;19.30;50.40;;;;;;5109372;27;20174;-82
2023/04/30 10:45:50;;;;;;;3.10;2.77;;;19.30;50.40;;;;;;5127634;27;20211;-82
2023/04/30 10:48:23;;;;;;;3.13;2.53;;;19.30;50.40;;;;;;5111122;27;20270;-82
2023/04/30 10:50:51;;;;;;;3.30;2.37;;;19.30;50.30;;;;;;5128341;27;20202;-82
2023/04/30 10:53:18;;;;;;;2.90;2.57;;;19.30;50.30;;;;;;5129677;27;20216;-82
2023/04/30 10:56:07;;;;;;;3.27;2.97;;;19.30;50.40;;;;;;5111836;27;20191;-82
2023/04/30 10:58:36;;;;;;;3.03;2.37;;;19.20;50.20;;;;;;5111637;27;20212;-82
2023/04/30 11:01:13;;;;;;;2.80;2.53;;;19.20;50.20;;;;;;5112799;27;20264;-82
2023/04/30 11:04:06;;;;;;;3.23;2.37;;;19.20;50.20;;;;;;5130427;27;20174;-82
2023/04/30 11:06:50;;;;;;;3.73;2.73;;;19.20;50.20;;;;;;5125470;27;20243;-81
2023/04/30 11:09:16;;;;;;;3.03;2.57;;;19.20;50.10;;;;;;5111042;27;20183;-80
2023/04/30 11:11:44;;;;;;;2.87;2.37;;;19.20;50.10;;;;;;5110683;27;20184;-82
2023/04/30 11:14:11;;;;;;;5.00;2.50;;;19.20;50.20;;;;;;5112250;27;20274;-81
2023/04/30 11:16:36;;;;;;;2.80;2.47;;;19.20;50.20;;;;;;5110755;27;20555;-81
2023/04/30 11:19:10;;;;;;;5.83;2.47;;;19.30;50.30;;;;;;5113146;27;20171;-81
2023/04/30 11:21:59;;;;;;;3.50;2.30;;;19.20;50.30;;;;;;5111541;27;20199;-81
2023/04/30 11:24:50;;;;;;;3.10;2.80;;;19.20;50.20;;;;;;5110999;27;20178;-82
2023/04/30 11:27:36;;;;;;;2.90;2.57;;;19.20;50.20;;;;;;5109974;27;20183;-81
2023/04/30 11:30:08;;;;;;;3.57;2.40;;;19.20;50.20;;;;;;5108554;27;20195;-82
2023/04/30 11:32:36;;;;;;;3.93;2.50;;;19.20;50.20;;;;;;5110251;27;20187;-81
2023/04/30 11:35:03;;;;;;;5.23;2.30;;;19.20;50.20;;;;;;5128041;27;20182;-82
2023/04/30 11:37:36;;;;;;;3.70;2.67;;;19.20;50.10;;;;;;5111385;27;20175;-80
2023/04/30 11:40:13;;;;;;;6.70;2.80;;;19.20;50.20;;;;;;5119902;27;20282;-82
2023/04/30 11:42:42;;;;;;;2.63;2.13;;;19.20;50.10;;;;;;5111343;27;20262;-81
2023/04/30 11:45:16;;;;;;;3.83;2.20;;;19.20;50.10;;;;;;5108970;27;20222;-81
2023/04/30 11:47:53;;;;;;;4.57;2.30;;;19.20;50.10;;;;;;5107513;27;20176;-82
2023/04/30 11:50:27;;;;;;;3.20;2.23;;;19.20;50.10;;;;;;5107629;27;20219;-80
2023/04/30 11:52:54;;;;;;;3.40;2.20;;;19.20;50.00;;;;;;5108391;28;20522;-80
2023/04/30 11:55:22;;;;;;;7.80;2.50;;;19.20;50.00;;;;;;5109755;27;20171;-80
2023/04/30 11:57:50;;;;;;;2.87;2.30;;;19.20;50.00;;;;;;5109921;27;20180;-81
2023/04/30 12:00:18;;;;;;;1.97;1.77;;;19.20;50.00;;;;;;5107848;27;20179;-81
2023/04/30 12:02:48;;;;;;;3.40;2.27;;;19.20;50.00;;;;;;5107465;28;20579;-80
2023/04/30 12:05:16;;;;;;;3.83;2.27;;;19.20;50.00;;;;;;5107619;27;20646;-82
2023/04/30 12:07:48;;;;;;;4.37;2.57;;;19.20;49.90;;;;;;5108097;28;20232;-80
2023/04/30 12:10:14;;;;;;;5.37;2.53;;;19.20;50.20;;;;;;5110546;27;20253;-80
2023/04/30 12:12:42;;;;;;;2.43;2.20;;;19.20;50.40;;;;;;5107243;28;20190;-79
2023/04/30 12:15:15;;;;;;;6.37;3.07;;;19.20;51.20;;;;;;5107725;27;20186;-79
2023/04/30 12:17:41;;;;;;;6.60;2.83;;;19.20;51.40;;;;;;5105738;28;20190;-79
2023/04/30 12:20:08;;;;;;;5.03;3.00;;;19.20;51.00;;;;;;5126613;27;20239;-79
2023/04/30 12:22:36;;;;;;;5.07;2.80;;;19.20;51.00;;;;;;5126607;27;20214;-79
2023/04/30 12:25:07;;;;;;;7.03;3.07;;;19.20;52.60;;;;;;5108387;28;20195;-80
2023/04/30 12:27:34;;;;;;;7.77;2.90;;;19.20;52.40;;;;;;5107231;28;20179;-81
2023/04/30 12:30:09;;;;;;;5.47;3.00;;;19.20;52.20;;;;;;5108022;28;20182;-80
2023/04/30 12:32:47;;;;;;;3.20;2.50;;;19.20;52.00;;;;;;5106396;28;20249;-81
2023/04/30 12:35:18;;;;;;;6.57;2.97;;;19.20;52.20;;;;;;5107413;28;20243;-80
2023/04/30 12:37:46;;;;;;;7.30;3.20;;;19.20;52.20;;;;;;5107524;28;20615;-79
2023/04/30 12:40:13;;;;;;;4.90;2.67;;;19.20;52.70;;;;;;5128395;28;20171;-79
2023/04/30 12:42:44;;;;;;;6.30;3.00;;;19.20;52.40;;;;;;5105597;28;20183;-79
2023/04/30 12:45:10;;;;;;;6.10;3.17;;;19.20;52.20;;;;;;5107709;28;20686;-78
2023/04/30 12:47:42;;;;;;;3.53;2.40;;;19.20;52.40;;;;;;5104979;28;20647;-79
2023/04/30 12:50:11;;;;;;;5.87;2.83;;;19.20;52.70;;;;;;5126754;28;20203;-79
2023/04/30 12:52:39;;;;;;;4.27;2.50;;;19.20;52.50;;;;;;5107913;28;20163;-79
2023/04/30 12:55:18;;;;;;;6.53;2.80;;;19.20;52.40;;;;;;5109408;28;20202;-80
2023/04/30 12:58:06;;;;;;;3.73;2.27;;;19.20;52.40;;;;;;5106702;28;20330;-79
2023/04/30 13:00:44;;;;;;;4.67;2.70;;;19.20;52.70;;;;;;5126006;28;20177;-80
2023/04/30 13:03:14;;;;;;;5.27;2.27;;;19.20;52.40;;;;;;5125781;27;20173;-80
2023/04/30 13:05:40;;;;;;;3.83;2.63;;;19.20;52.30;;;;;;5109421;27;20179;-81
2023/04/30 13:08:06;;;;;;;4.63;2.50;;;19.20;52.40;;;;;;5129638;27;20171;-80
2023/04/30 13:10:32;;;;;;;6.03;3.00;;;19.20;52.40;;;;;;5112735;27;20171;-80
2023/04/30 13:12:58;;;;;;;6.00;2.60;;;19.20;52.10;;;;;;5131124;27;20186;-79
2023/04/30 13:15:24;;;;;;;3.23;2.40;;;19.20;52.10;;;;;;5129177;27;20198;-80
2023/04/30 13:17:51;;;;;;;4.47;2.57;;;19.20;52.30;;;;;;5110064;27;20183;-79
2023/04/30 13:20:17;;;;;;;4.80;2.73;;;19.20;52.40;;;;;;5130344;27;20191;-80
2023/04/30 13:22:43;;;;;;;2.97;2.40;;;19.20;52.30;;;;;;5129348;27;20167;-81
2023/04/30 13:25:09;;;;;;;5.20;2.33;;;19.30;52.30;;;;;;5131829;27;20654;-81
2023/04/30 13:27:34;;;;;;;4.17;2.60;;;19.30;52.20;;;;;;5128634;27;20561;-81
2023/04/30 13:30:06;;;;;;;4.80;2.43;;;19.20;52.50;;;;;;5110442;27;21087;-80
2023/04/30 13:32:32;;;;;;;5.03;2.50;;;19.30;52.00;;;;;;5111080;27;20179;-81
2023/04/30 13:34:57;;;;;;;3.83;2.30;;;19.30;51.90;;;;;;5110462;27;20640;-81
2023/04/30 13:37:23;;;;;;;4.40;2.30;;;19.30;51.90;;;;;;5113614;27;20193;-81
2023/04/30 13:39:49;;;;;;;4.43;2.40;;;19.20;51.80;;;;;;5110806;27;20198;-80
2023/04/30 13:42:14;;;;;;;5.00;2.10;;;19.20;51.80;;;;;;5129870;27;20706;-80
2023/04/30 13:44:40;;;;;;;2.97;2.23;;;19.20;51.80;;;;;;5112416;27;20210;-82
2023/04/30 13:47:06;;;;;;;2.70;2.10;;;19.20;51.70;;;;;;5114022;27;20179;-81
2023/04/30 13:49:34;;;;;;;3.73;2.27;;;19.30;52.30;;;;;;5114278;27;20163;-80
2023/04/30 13:52:00;;;;;;;3.57;2.53;;;19.20;51.60;;;;;;5114631;27;20175;-79
2023/04/30 13:54:26;;;;;;;3.97;2.13;;;19.30;51.50;;;;;;5131986;27;20517;-79
2023/04/30 13:56:52;;;;;;;3.17;2.20;;;19.20;51.50;;;;;;5112931;27;20235;-80
2023/04/30 13:59:18;;;;;;;3.57;2.20;;;19.20;51.40;;;;;;5131825;27;20712;-81
2023/04/30 14:01:43;;;;;;;3.63;2.30;;;19.30;51.50;;;;;;5113313;27;20786;-79
2023/04/30 14:04:09;;;;;;;2.57;2.13;;;19.20;51.50;;;;;;5148803;27;20654;-81
2023/04/30 14:06:35;;;;;;;2.27;1.93;;;19.30;51.60;;;;;;5112425;27;20232;-81
2023/04/30 14:09:00;;;;;;;3.00;1.97;;;19.20;51.40;;;;;;5112643;27;20236;-82
2023/04/30 14:11:26;;;;;;;5.07;2.37;;;19.30;51.60;;;;;;5112875;27;20190;-80
2023/04/30 14:13:53;;;;;;;3.40;2.00;;;19.30;51.60;;;;;;5112751;27;20183;-81
2023/04/30 14:16:19;;;;;;;1.93;1.50;;;19.30;51.70;;;;;;5113837;27;20519;-78
2023/04/30 14:18:45;;;;;;;4.70;2.33;;;19.20;51.60;;;;;;5131278;27;20613;-78
2023/04/30 14:21:11;;;;;;;2.87;1.77;;;19.20;51.70;;;;;;5130375;27;20206;-78
2023/04/30 14:23:37;;;;;;;2.57;1.90;;;19.20;51.70;;;;;;5112930;27;20175;-77
2023/04/30 14:26:03;;;;;;;2.50;1.70;;;19.20;51.80;;;;;;5117707;27;20175;-77
2023/04/30 14:28:29;;;;;;;2.70;1.50;;;19.20;51.70;;;;;;5119367;27;20500;-78
2023/04/30 14:30:55;;;;;;;3.07;2.10;;;19.30;51.80;;;;;;5118852;27;20589;-78
2023/04/30 14:33:20;;;;;;;2.33;1.73;;;19.30;51.90;;;;;;5118264;27;20258;-78
2023/04/30 14:35:46;;;;;;;2.03;1.80;;;19.20;51.90;;;;;;5112921;27;20191;-78
2023/04/30 14:38:12;;;;;;;2.47;1.80;;;19.20;52.00;;;;;;5131457;27;20211;-78
2023/04/30 14:40:38;;;;;;;2.60;1.87;;;19.30;52.10;;;;;;5112346;27;20659;-79
2023/04/30 14:43:04;;;;;;;3.67;2.03;;;19.20;52.50;;;;;;5113159;27;20178;-78
2023/04/30 14:45:31;;;;;;;5.50;1.57;;;19.20;52.80;;;;;;5112210;27;20223;-80
2023/04/30 14:47:57;;;;;;;3.07;1.40;;;19.20;52.70;;;;;;5111660;27;20187;-79
2023/04/30 14:50:23;;;;;;;4.23;1.60;;;19.20;52.90;;;;;;5112171;27;20187;-78
2023/04/30 14:52:49;;;;;;;2.73;1.70;;;19.30;53.10;;;;;;5128037;27;20174;-79
2023/04/30 14:55:14;;;;;;;2.47;1.43;;;19.20;52.70;;;;;;5129277;27;21027;-78
2023/04/30 14:57:40;;;;;;;1.87;1.40;;;19.20;52.90;;;;;;5108131;27;20171;-78
2023/04/30 15:00:06;;;;;;;3.00;1.60;;;19.20;53.00;;;;;;5109590;27;20217;-80
2023/04/30 15:02:32;;;;;;;2.13;1.70;;;19.20;52.90;;;;;;5108958;27;20294;-79
2023/04/30 15:04:57;;;;;;;2.57;1.60;;;19.20;53.00;;;;;;5107967;27;20699;-80
2023/04/30 15:07:23;;;;;;;3.30;1.63;;;19.20;52.90;;;;;;5110919;27;20258;-79
2023/04/30 15:09:49;;;;;;;2.20;1.53;;;19.20;53.00;;;;;;5107683;27;20179;-78
2023/04/30 15:12:14;;;;;;;2.60;1.50;;;19.20;52.90;;;;;;5109222;27;20190;-81
2023/04/30 15:14:40;;;;;;;2.73;1.60;;;19.20;53.10;;;;;;5107097;27;20181;-82
2023/04/30 15:17:06;;;;;;;5.07;1.80;;;19.20;53.20;;;;;;5109624;27;20171;-79
2023/04/30 15:19:32;;;;;;;3.47;2.00;;;19.20;46.40;;;;;;5111038;27;20710;-79
2023/04/30 15:21:57;;;;;;;2.80;1.70;;;19.20;41.10;;;;;;5125070;27;20223;-79
2023/04/30 15:24:23;;;;;;;2.40;1.90;;;19.10;39.70;;;;;;5108321;27;20182;-78
2023/04/30 15:26:53;;;;;;;3.77;1.70;;;19.20;42.30;;;;;;5110344;27;20191;-81
2023/04/30 15:29:18;;;;;;;4.50;2.20;;;19.20;45.60;;;;;;5130027;27;20175;-79
2023/04/30 15:31:44;;;;;;;5.03;2.27;;;19.10;45.70;;;;;;5124749;27;20696;-79
2023/04/30 15:34:10;;;;;;;3.27;2.00;;;19.10;43.10;;;;;;5109765;27;20167;-81
2023/04/30 15:36:36;;;;;;;2.60;1.83;;;19.20;44.30;;;;;;5111155;27;20687;-81
2023/04/30 15:39:01;;;;;;;2.37;1.67;;;19.10;45.80;;;;;;5109545;27;20612;-81
2023/04/30 15:41:27;;;;;;;1.80;1.50;;;19.10;47.50;;;;;;5128629;27;20344;-79
2023/04/30 15:43:52;;;;;;;3.23;1.70;;;19.10;48.70;;;;;;5109358;27;20216;-79
2023/04/30 15:46:18;;;;;;;2.97;1.87;;;19.10;49.50;;;;;;5119196;27;20242;-79
2023/04/30 15:48:44;;;;;;;1.70;1.47;;;19.10;50.00;;;;;;5116791;27;20554;-78
2023/04/30 15:51:09;;;;;;;3.80;1.80;;;19.10;50.20;;;;;;5099028;27;20197;-79
2023/04/30 15:53:35;;;;;;;2.27;1.73;;;19.10;50.00;;;;;;5118848;27;20179;-81
2023/04/30 15:56:03;;;;;;;2.80;1.60;;;19.20;50.00;;;;;;5099558;27;20171;-82
2023/04/30 15:58:28;;;;;;;3.17;1.80;;;19.10;49.80;;;;;;5120215;27;20635;-79
2023/04/30 16:00:54;;;;;;;2.30;1.60;;;19.20;49.80;;;;;;5100680;27;20211;-80
2023/04/30 16:03:19;;;;;;;3.37;1.90;;;19.20;49.80;;;;;;5118475;27;20191;-79
2023/04/30 16:05:45;;;;;;;3.97;1.83;;;19.20;49.80;;;;;;5117855;27;20174;-80
2023/04/30 16:08:11;;;;;;;5.30;2.20;;;19.20;49.60;;;;;;5099873;27;20324;-81
2023/04/30 16:10:37;;;;;;;3.17;2.10;;;19.20;47.70;;;;;;5098412;27;20491;-81
2023/04/30 16:13:03;;;;;;;2.50;1.60;;;19.10;48.10;;;;;;5095869;27;20172;-80
2023/04/30 16:15:29;;;;;;;2.40;1.97;;;19.10;48.30;;;;;;5114666;27;20192;-80
2023/04/30 16:17:55;;;;;;;3.10;1.90;;;19.10;49.00;;;;;;5095519;28;20258;-80
2023/04/30 16:20:22;;;;;;;3.53;1.93;;;19.10;49.20;;;;;;5116461;27;20193;-81
2023/04/30 16:22:48;;;;;;;2.57;1.80;;;19.10;49.00;;;;;;5097600;28;20638;-82
2023/04/30 16:25:14;;;;;;;3.87;1.80;;;19.10;48.80;;;;;;5098011;28;20855;-81
2023/04/30 16:27:42;;;;;;;3.43;2.00;;;19.10;48.70;;;;;;5086409;28;20172;-81
2023/04/30 16:30:08;;;;;;;3.17;2.10;;;19.10;48.20;;;;;;5104130;28;20178;-80
2023/04/30 16:32:34;;;;;;;3.30;1.80;;;19.10;47.30;;;;;;5087976;28;20191;-80
2023/04/30 16:35:00;;;;;;;3.67;1.90;;;19.10;48.10;;;;;;5090404;28;20221;-80
2023/04/30 16:37:25;;;;;;;3.93;1.63;;;19.10;48.50;;;;;;5091974;27;20206;-82
2023/04/30 16:39:51;;;;;;;4.67;2.30;;;19.10;48.60;;;;;;5098712;27;20235;-81
2023/04/30 16:42:16;;;;;;;4.90;2.17;;;19.00;34.70;;;;;;5102744;27;20358;-81
2023/04/30 16:44:42;;;;;;;3.23;2.13;;;18.90;35.40;;;;;;5113473;27;21016;-82
2023/04/30 16:47:08;;;;;;;4.90;2.60;;;19.00;41.80;;;;;;5101950;27;20718;-82
2023/04/30 16:49:33;;;;;;;6.40;2.77;;;19.00;34.80;;;;;;5103475;27;20182;-81
2023/04/30 16:52:01;;;;;;;5.07;2.80;;;19.00;36.50;;;;;;5097461;27;20182;-80
2023/04/30 16:54:26;;;;;;;3.17;2.37;;;19.00;40.70;;;;;;5095877;27;20186;-82
2023/04/30 16:56:52;;;;;;;3.57;2.00;;;19.00;44.80;;;;;;5100639;27;20209;-80
2023/04/30 16:59:18;;;;;;;2.33;1.80;;;19.00;46.80;;;;;;5093332;28;20189;-81
2023/04/30 17:01:44;;;;;;;4.97;1.90;;;19.00;47.10;;;;;;5113894;27;20208;-79
2023/04/30 17:04:11;;;;;;;2.57;1.80;;;19.10;47.00;;;;;;5100108;27;20196;-80
2023/04/30 17:06:37;;;;;;;5.22;2.20;;;19.10;47.20;;;;;;5117507;27;20419;-78
2023/04/30 17:09:03;;;;;;;4.00;2.03;;;19.10;47.30;;;;;;5118006;27;20175;-76
2023/04/30 17:11:29;;;;;;;8.90;2.60;;;19.10;47.30;;;;;;5101786;27;20246;-77
2023/04/30 17:13:56;;;;;;;10.83;2.40;;;19.10;47.60;;;;;;5101982;27;20176;-76
2023/04/30 17:16:22;;;;;;;3.67;1.97;;;19.10;47.70;;;;;;5101345;27;21515;-77
2023/04/30 17:18:48;;;;;;;5.30;2.10;;;19.10;47.80;;;;;;5118552;27;20184;-78
2023/04/30 17:21:14;;;;;;;2.63;1.80;;;19.10;47.90;;;;;;5118419;27;20221;-77
2023/04/30 17:23:40;;;;;;;2.90;2.03;;;19.10;47.90;;;;;;5097810;27;20205;-75
2023/04/30 17:26:05;;;;;;;3.00;2.00;;;19.10;48.10;;;;;;5102176;27;20350;-78
2023/04/30 17:28:31;;;;;;;2.03;1.73;;;19.10;48.10;;;;;;5102483;27;20180;-76
2023/04/30 17:31:02;;;;;;;2.70;1.80;;;19.10;48.20;;;;;;5102438;27;20194;-78
2023/04/30 17:33:28;;;;;;;3.30;2.00;;;19.10;48.20;;;;;;5121590;27;20266;-79
2023/04/30 17:35:53;;;;;;;2.37;1.73;;;19.10;48.30;;;;;;5102117;27;20196;-76
2023/04/30 17:38:19;;;;;;;3.13;1.50;;;19.10;48.40;;;;;;5113667;27;20196;-77
2023/04/30 17:40:45;;;;;;;2.50;1.77;;;19.10;48.50;;;;;;5103705;27;20908;-76
2023/04/30 17:43:10;;;;;;;1.70;1.60;;;19.10;48.50;;;;;;5101446;27;20187;-78
2023/04/30 17:45:36;;;;;;;2.77;1.60;;;19.10;48.70;;;;;;5105182;27;20553;-76
2023/04/30 17:48:02;;;;;;;2.13;1.63;;;19.10;48.70;;;;;;5112053;27;20175;-77
2023/04/30 17:50:28;;;;;;;1.80;1.70;;;19.10;48.70;;;;;;5128650;27;20187;-78
2023/04/30 17:52:53;;;;;;;3.07;1.80;;;19.10;48.80;;;;;;5112685;27;20255;-76
2023/04/30 17:55:20;;;;;;;3.03;1.60;;;19.10;48.90;;;;;;5111356;27;20637;-78